createdAt,value
2019-03-30T00:02:06.844Z,6.60
2019-03-30T00:04:35.425Z,6.50
2019-03-30T00:07:03.984Z,6.40
2019-03-30T00:09:32.646Z,6.40
2019-03-30T00:12:23.034Z,6.40
2019-03-30T00:14:50.912Z,6.40
2019-03-30T00:17:19.462Z,6.30
2019-03-30T00:19:48.046Z,6.30
2019-03-30T00:22:16.597Z,6.30
2019-03-30T00:24:45.179Z,6.30
2019-03-30T00:27:13.661Z,6.20
2019-03-30T00:29:42.316Z,6.10
2019-03-30T00:32:10.864Z,6.20
2019-03-30T00:34:39.459Z,6.20
2019-03-30T00:37:08.079Z,6.10
2019-03-30T00:39:56.166Z,6.10
2019-03-30T00:42:24.720Z,6.10
2019-03-30T00:45:12.817Z,6.00
2019-03-30T00:47:41.378Z,6.00
2019-03-30T00:50:10.029Z,6.00
2019-03-30T00:52:38.651Z,6.00
2019-03-30T00:55:08.848Z,5.90
2019-03-30T00:57:37.413Z,5.90
2019-03-30T01:00:09.729Z,5.90
2019-03-30T01:02:38.294Z,5.90
2019-03-30T01:05:07.316Z,5.80
2019-03-30T01:07:36.013Z,5.90
2019-03-30T01:10:06.415Z,5.80
2019-03-30T01:12:35.073Z,5.80
2019-03-30T01:15:06.377Z,5.80
2019-03-30T01:17:35.081Z,5.80
2019-03-30T01:20:05.904Z,5.60
2019-03-30T01:22:53.872Z,5.50
2019-03-30T01:25:41.867Z,5.50
2019-03-30T01:28:10.416Z,5.30
2019-03-30T01:30:58.412Z,5.40
2019-03-30T01:33:26.968Z,5.40
2019-03-30T01:35:57.093Z,5.50
2019-03-30T01:38:44.981Z,5.50
2019-03-30T01:41:13.573Z,5.50
2019-03-30T01:43:42.300Z,5.40
2019-03-30T01:46:10.889Z,5.30
2019-03-30T01:48:39.513Z,5.40
2019-03-30T01:51:08.164Z,5.40
2019-03-30T01:53:36.716Z,5.40
2019-03-30T01:56:05.439Z,5.30
2019-03-30T01:58:53.400Z,5.30
2019-03-30T02:01:22.052Z,5.30
2019-03-30T02:03:50.785Z,5.40
2019-03-30T02:06:19.376Z,5.40
2019-03-30T02:08:47.937Z,5.30
2019-03-30T02:11:16.602Z,5.30
2019-03-30T02:13:45.158Z,5.30
2019-03-30T02:16:13.741Z,5.10
2019-03-30T02:18:42.435Z,5.10
2019-03-30T02:21:11.087Z,5.20
2019-03-30T02:23:39.786Z,5.10
2019-03-30T02:26:08.444Z,5.20
2019-03-30T02:28:37.143Z,5.20
2019-03-30T02:31:05.873Z,5.00
2019-03-30T02:33:53.832Z,5.10
2019-03-30T02:36:22.517Z,5.00
2019-03-30T02:38:51.068Z,5.00
2019-03-30T02:41:19.799Z,5.00
2019-03-30T02:43:48.453Z,4.90
2019-03-30T02:46:17.177Z,4.80
2019-03-30T02:48:45.735Z,4.90
2019-03-30T02:51:33.719Z,4.90
2019-03-30T02:54:03.913Z,4.90
2019-03-30T02:56:32.472Z,4.90
2019-03-30T02:59:20.426Z,4.90
2019-03-30T03:01:49.008Z,4.80
2019-03-30T03:04:17.704Z,4.80
2019-03-30T03:06:46.383Z,4.80
2019-03-30T03:09:14.921Z,4.80
2019-03-30T03:11:43.510Z,4.80
2019-03-30T03:14:31.520Z,4.80
2019-03-30T03:17:19.392Z,4.80
2019-03-30T03:19:48.007Z,4.70
2019-03-30T03:22:16.563Z,4.70
2019-03-30T03:25:06.014Z,4.80
2019-03-30T03:27:53.974Z,4.70
2019-03-30T03:30:23.928Z,4.40
2019-03-30T03:32:52.555Z,4.40
2019-03-30T03:35:40.478Z,4.40
2019-03-30T03:38:28.440Z,4.50
2019-03-30T03:40:57.202Z,4.50
2019-03-30T03:43:25.834Z,4.40
2019-03-30T03:45:54.557Z,4.60
2019-03-30T03:48:23.176Z,4.40
2019-03-30T03:50:54.845Z,4.50
2019-03-30T03:53:23.740Z,4.60
2019-03-30T03:55:53.364Z,4.40
2019-03-30T03:58:25.009Z,4.40
2019-03-30T04:00:56.509Z,4.40
2019-03-30T04:03:26.829Z,4.40
2019-03-30T04:05:58.349Z,4.40
2019-03-30T04:08:46.608Z,4.40
2019-03-30T04:11:15.769Z,4.40
2019-03-30T04:13:45.936Z,4.40
2019-03-30T04:16:14.528Z,4.20
2019-03-30T04:18:47.619Z,4.30
2019-03-30T04:21:13.393Z,4.30
2019-03-30T04:23:41.958Z,4.30
2019-03-30T04:26:10.545Z,4.30
2019-03-30T04:28:39.108Z,4.30
2019-03-30T04:31:07.777Z,4.30
2019-03-30T04:33:36.401Z,4.30
2019-03-30T04:36:05.134Z,4.20
2019-03-30T04:38:53.101Z,4.00
2019-03-30T04:41:21.702Z,4.10
2019-03-30T04:43:50.261Z,4.10
2019-03-30T04:46:20.390Z,4.10
2019-03-30T04:48:49.036Z,4.00
2019-03-30T04:51:17.695Z,4.10
2019-03-30T04:53:58.954Z,4.00
2019-03-30T04:56:27.537Z,4.10
2019-03-30T04:58:56.097Z,3.90
2019-03-30T05:01:24.757Z,3.80
2019-03-30T05:03:53.389Z,3.80
2019-03-30T05:06:22.122Z,3.90
2019-03-30T05:08:50.754Z,3.80
2019-03-30T05:11:19.343Z,3.80
2019-03-30T05:14:07.308Z,4.00
2019-03-30T05:16:35.900Z,4.10
2019-03-30T05:19:04.477Z,4.00
2019-03-30T05:21:52.468Z,3.90
2019-03-30T05:24:21.104Z,4.00
2019-03-30T05:26:49.775Z,4.00
2019-03-30T05:29:18.320Z,4.00
2019-03-30T05:32:06.314Z,3.90
2019-03-30T05:34:34.877Z,4.00
2019-03-30T05:37:03.536Z,4.10
2019-03-30T05:39:32.096Z,4.10
2019-03-30T05:42:00.757Z,4.00
2019-03-30T05:44:29.318Z,4.00
2019-03-30T05:47:17.370Z,4.10
2019-03-30T05:49:45.956Z,4.10
2019-03-30T05:52:25.854Z,4.10
2019-03-30T05:55:04.961Z,4.10
2019-03-30T05:57:33.561Z,4.10
2019-03-30T06:00:02.116Z,4.20
2019-03-30T06:02:30.712Z,4.20
2019-03-30T06:05:01.468Z,4.30
2019-03-30T06:07:48.853Z,4.30
2019-03-30T06:10:17.416Z,4.30
2019-03-30T06:12:46.076Z,4.30
2019-03-30T06:15:14.781Z,4.40
2019-03-30T06:17:43.644Z,4.40
2019-03-30T06:20:12.344Z,4.20
2019-03-30T06:22:41.022Z,4.50
2019-03-30T06:25:09.740Z,4.50
2019-03-30T06:27:38.326Z,4.60
2019-03-30T06:30:17.687Z,4.70
2019-03-30T06:32:46.416Z,4.80
2019-03-30T06:35:15.197Z,5.00
2019-03-30T06:37:43.853Z,5.10
2019-03-30T06:40:13.148Z,5.20
2019-03-30T06:42:41.808Z,5.30
2019-03-30T06:45:10.499Z,5.50
2019-03-30T06:47:39.158Z,5.60
2019-03-30T06:50:09.548Z,5.70
2019-03-30T06:52:41.251Z,6.00
2019-03-30T06:55:27.817Z,6.10
2019-03-30T06:57:56.476Z,6.30
2019-03-30T07:00:33.319Z,6.50
2019-03-30T07:03:04.522Z,6.60
2019-03-30T07:05:52.676Z,6.70
2019-03-30T07:08:21.533Z,6.90
2019-03-30T07:10:50.461Z,7.10
2019-03-30T07:13:19.124Z,7.20
2019-03-30T07:15:49.025Z,7.10
2019-03-30T07:18:18.853Z,7.20
2019-03-30T07:21:06.816Z,7.50
2019-03-30T07:23:35.472Z,7.60
2019-03-30T07:26:23.438Z,7.70
2019-03-30T07:28:52.065Z,7.90
2019-03-30T07:31:20.633Z,8.10
2019-03-30T07:33:49.211Z,8.10
2019-03-30T07:36:17.849Z,8.20
2019-03-30T07:38:46.448Z,8.30
2019-03-30T07:41:15.078Z,8.40
2019-03-30T07:43:43.733Z,8.50
2019-03-30T07:46:12.292Z,8.50
2019-03-30T07:48:40.885Z,8.70
2019-03-30T07:51:09.437Z,8.80
2019-03-30T07:53:44.343Z,8.90
2019-03-30T07:56:09.040Z,9.00
2019-03-30T07:58:37.790Z,9.20
2019-03-30T08:01:25.749Z,9.40
2019-03-30T08:03:54.404Z,9.60
2019-03-30T08:06:22.960Z,9.80
2019-03-30T08:09:10.948Z,9.80
2019-03-30T08:11:39.508Z,10.10
2019-03-30T08:14:08.169Z,10.30
2019-03-30T08:16:36.751Z,10.40
2019-03-30T08:19:05.319Z,10.50
2019-03-30T08:21:33.872Z,10.50
2019-03-30T08:24:02.538Z,10.70
2019-03-30T08:26:31.096Z,10.80
2019-03-30T08:28:59.691Z,10.90
2019-03-30T08:31:28.312Z,11.00
2019-03-30T08:33:56.913Z,11.00
2019-03-30T08:36:25.470Z,11.20
2019-03-30T08:38:54.052Z,11.20
2019-03-30T08:41:42.017Z,11.40
2019-03-30T08:44:10.612Z,11.50
2019-03-30T08:46:58.588Z,11.70
2019-03-30T08:49:27.176Z,11.80
2019-03-30T08:51:55.721Z,12.00
2019-03-30T08:54:24.312Z,12.10
2019-03-30T08:56:52.943Z,12.30
2019-03-30T08:59:21.533Z,12.60
2019-03-30T09:02:09.428Z,12.70
2019-03-30T09:04:38.033Z,13.00
2019-03-30T09:07:06.655Z,13.20
2019-03-30T09:09:35.376Z,13.20
2019-03-30T09:12:05.078Z,13.50
2019-03-30T09:14:33.677Z,13.60
2019-03-30T09:17:02.301Z,13.70
2019-03-30T09:19:30.961Z,13.80
2019-03-30T09:21:59.518Z,13.90
2019-03-30T09:24:28.341Z,14.00
2019-03-30T09:26:56.969Z,14.20
2019-03-30T09:29:25.629Z,14.30
2019-03-30T09:31:54.504Z,14.40
2019-03-30T09:34:42.500Z,14.50
2019-03-30T09:37:11.089Z,14.50
2019-03-30T09:39:39.648Z,14.60
2019-03-30T09:42:08.236Z,14.80
2019-03-30T09:44:36.796Z,14.90
2019-03-30T09:47:05.383Z,15.00
2019-03-30T09:49:33.940Z,15.10
2019-03-30T09:52:02.540Z,15.30
2019-03-30T09:54:31.189Z,15.30
2019-03-30T09:56:59.840Z,15.30
2019-03-30T09:59:28.408Z,15.50
2019-03-30T10:01:57.064Z,15.60
2019-03-30T10:04:25.692Z,15.70
2019-03-30T10:07:13.619Z,15.70
2019-03-30T10:09:42.181Z,15.70
2019-03-30T10:12:10.768Z,15.90
2019-03-30T10:14:39.332Z,16.00
2019-03-30T10:17:27.248Z,16.00
2019-03-30T10:20:04.077Z,16.10
2019-03-30T10:22:26.047Z,16.20
2019-03-30T10:24:54.616Z,16.20
2019-03-30T10:27:23.273Z,16.30
2019-03-30T10:29:51.903Z,16.40
2019-03-30T10:32:20.557Z,16.50
2019-03-30T10:35:08.523Z,16.60
2019-03-30T10:37:37.181Z,16.60
2019-03-30T10:40:08.968Z,16.70
2019-03-30T10:42:37.704Z,16.70
2019-03-30T10:45:08.216Z,16.70
2019-03-30T10:47:36.808Z,16.90
2019-03-30T10:50:07.606Z,16.90
2019-03-30T10:52:36.328Z,17.00
2019-03-30T10:55:06.524Z,17.10
2019-03-30T10:57:35.259Z,17.20
2019-03-30T11:00:05.758Z,17.40
2019-03-30T11:02:34.340Z,17.50
2019-03-30T11:05:02.973Z,17.70
2019-03-30T11:07:31.560Z,17.80
2019-03-30T11:10:00.191Z,17.80
2019-03-30T11:12:28.772Z,17.80
2019-03-30T11:15:16.665Z,17.90
2019-03-30T11:17:46.792Z,17.90
2019-03-30T11:20:15.762Z,17.90
2019-03-30T11:22:44.416Z,18.10
2019-03-30T11:25:13.048Z,18.20
2019-03-30T11:27:41.700Z,18.40
2019-03-30T11:30:10.598Z,18.50
2019-03-30T11:32:39.356Z,18.50
2019-03-30T11:35:08.251Z,18.60
2019-03-30T11:37:36.836Z,18.50
2019-03-30T11:40:08.643Z,18.60
2019-03-30T11:42:37.227Z,18.60
2019-03-30T11:45:06.824Z,18.50
2019-03-30T11:47:35.621Z,18.50
2019-03-30T11:50:06.717Z,18.40
2019-03-30T11:52:35.473Z,18.50
2019-03-30T11:55:20.565Z,18.60
2019-03-30T11:57:36.712Z,18.80
2019-03-30T12:00:24.676Z,18.70
2019-03-30T12:02:54.795Z,18.60
2019-03-30T12:05:23.348Z,18.60
2019-03-30T12:07:52.085Z,18.80
2019-03-30T12:10:20.704Z,18.90
2019-03-30T12:12:49.436Z,19.00
2019-03-30T12:15:18.053Z,18.90
2019-03-30T12:17:46.782Z,18.90
2019-03-30T12:20:15.583Z,18.90
2019-03-30T12:22:44.169Z,18.90
2019-03-30T12:25:12.865Z,19.00
2019-03-30T12:27:41.542Z,19.10
2019-03-30T12:30:10.441Z,19.20
2019-03-30T12:32:39.028Z,19.30
2019-03-30T12:35:08.120Z,19.30
2019-03-30T12:37:37.148Z,19.40
2019-03-30T12:40:07.145Z,19.30
2019-03-30T12:42:36.039Z,19.40
2019-03-30T12:45:06.672Z,19.30
2019-03-30T12:47:35.288Z,19.10
2019-03-30T12:50:05.812Z,19.00
2019-03-30T12:52:34.423Z,19.10
2019-03-30T12:55:03.146Z,19.10
2019-03-30T12:57:31.774Z,19.20
2019-03-30T13:00:00.432Z,19.10
2019-03-30T13:02:28.985Z,19.10
2019-03-30T13:04:57.638Z,19.20
2019-03-30T13:07:26.199Z,19.30
2019-03-30T13:09:54.776Z,19.50
2019-03-30T13:12:23.338Z,19.60
2019-03-30T13:14:51.921Z,19.70
2019-03-30T13:17:20.555Z,19.70
2019-03-30T13:19:49.210Z,19.70
2019-03-30T13:22:17.896Z,19.70
2019-03-30T13:24:46.548Z,19.60
2019-03-30T13:27:15.107Z,19.60
2019-03-30T13:29:43.765Z,19.60
2019-03-30T13:32:12.384Z,19.70
2019-03-30T13:34:40.967Z,19.70
2019-03-30T13:37:39.870Z,19.60
2019-03-30T13:40:09.497Z,19.60
2019-03-30T13:42:38.053Z,19.50
2019-03-30T13:45:08.178Z,19.30
2019-03-30T13:47:36.798Z,19.30
2019-03-30T13:50:06.620Z,19.50
2019-03-30T13:52:35.243Z,19.60
2019-03-30T13:55:04.380Z,19.70
2019-03-30T13:57:32.943Z,19.80
2019-03-30T14:00:01.596Z,19.90
2019-03-30T14:02:30.153Z,19.80
2019-03-30T14:04:58.809Z,19.60
2019-03-30T14:07:27.371Z,19.50
2019-03-30T14:09:55.953Z,19.30
2019-03-30T14:12:24.510Z,19.30
2019-03-30T14:14:53.097Z,19.20
2019-03-30T14:17:21.729Z,19.20
2019-03-30T14:19:50.448Z,19.20
2019-03-30T14:22:19.001Z,19.10
2019-03-30T14:24:47.652Z,19.40
2019-03-30T14:27:16.219Z,19.40
2019-03-30T14:29:44.806Z,19.20
2019-03-30T14:32:13.368Z,19.20
2019-03-30T14:34:41.945Z,19.10
2019-03-30T14:37:10.568Z,19.10
2019-03-30T14:39:39.148Z,19.20
2019-03-30T14:42:08.599Z,19.20
2019-03-30T14:44:37.264Z,19.20
2019-03-30T14:47:05.831Z,19.10
2019-03-30T14:49:34.429Z,19.10
2019-03-30T14:52:03.203Z,19.10
2019-03-30T14:54:31.848Z,19.20
2019-03-30T14:57:00.516Z,19.20
2019-03-30T14:59:29.066Z,19.20
2019-03-30T15:01:57.720Z,19.30
2019-03-30T15:04:26.351Z,19.40
2019-03-30T15:06:55.082Z,19.50
2019-03-30T15:09:23.640Z,19.50
2019-03-30T15:11:52.233Z,19.50
2019-03-30T15:14:20.789Z,19.50
2019-03-30T15:16:49.520Z,19.50
2019-03-30T15:19:18.092Z,19.50
2019-03-30T15:21:46.683Z,19.50
2019-03-30T15:24:15.238Z,19.40
2019-03-30T15:26:43.820Z,19.40
2019-03-30T15:29:12.376Z,19.40
2019-03-30T15:31:40.947Z,19.30
2019-03-30T15:34:09.641Z,19.20
2019-03-30T15:36:38.292Z,19.30
2019-03-30T15:39:07.689Z,19.20
2019-03-30T15:41:36.272Z,19.00
2019-03-30T15:44:04.907Z,18.80
2019-03-30T15:46:33.496Z,19.00
2019-03-30T15:49:02.056Z,18.90
2019-03-30T15:51:30.656Z,18.70
2019-03-30T15:53:59.211Z,18.50
2019-03-30T15:56:27.882Z,18.50
2019-03-30T15:58:56.436Z,18.50
2019-03-30T16:01:25.095Z,18.40
2019-03-30T16:03:53.728Z,18.30
2019-03-30T16:06:22.380Z,18.30
2019-03-30T16:08:50.942Z,18.20
2019-03-30T16:11:19.525Z,18.20
2019-03-30T16:13:48.155Z,18.20
2019-03-30T16:16:16.740Z,18.10
2019-03-30T16:18:45.296Z,18.20
2019-03-30T16:21:14.056Z,18.30
2019-03-30T16:23:42.680Z,18.40
2019-03-30T16:26:11.396Z,18.30
2019-03-30T16:28:39.956Z,18.20
2019-03-30T16:31:08.685Z,18.10
2019-03-30T16:33:37.308Z,18.20
2019-03-30T16:36:05.893Z,18.10
2019-03-30T16:38:34.448Z,18.20
2019-03-30T16:41:03.329Z,18.20
2019-03-30T16:43:31.829Z,18.20
2019-03-30T16:46:00.489Z,18.00
2019-03-30T16:48:29.116Z,17.80
2019-03-30T16:50:58.681Z,17.60
2019-03-30T16:53:27.236Z,17.60
2019-03-30T16:55:55.906Z,17.50
2019-03-30T16:58:24.460Z,17.40
2019-03-30T17:00:56.805Z,17.30
2019-03-30T17:03:23.252Z,17.20
2019-03-30T17:05:54.151Z,17.20
2019-03-30T17:08:22.914Z,17.10
2019-03-30T17:10:51.643Z,17.00
2019-03-30T17:13:20.364Z,16.90
2019-03-30T17:15:48.926Z,16.80
2019-03-30T17:18:19.036Z,16.70
2019-03-30T17:20:47.740Z,16.70
2019-03-30T17:23:16.402Z,16.60
2019-03-30T17:25:44.957Z,16.50
2019-03-30T17:28:13.544Z,16.40
2019-03-30T17:30:42.268Z,16.50
2019-03-30T17:33:11.029Z,16.40
2019-03-30T17:35:39.588Z,16.30
2019-03-30T17:38:08.174Z,16.30
2019-03-30T17:40:36.756Z,16.20
2019-03-30T17:43:05.347Z,16.10
2019-03-30T17:45:33.963Z,16.00
2019-03-30T17:48:02.554Z,16.10
2019-03-30T17:50:31.109Z,16.10
2019-03-30T17:52:59.704Z,15.90
2019-03-30T17:55:33.936Z,15.70
2019-03-30T17:58:12.224Z,15.50
2019-03-30T18:00:48.318Z,15.40
2019-03-30T18:03:16.907Z,15.30
2019-03-30T18:05:45.466Z,15.10
2019-03-30T18:08:14.129Z,15.00
2019-03-30T18:10:42.683Z,14.80
2019-03-30T18:13:11.262Z,14.70
2019-03-30T18:15:39.885Z,14.60
2019-03-30T18:18:08.477Z,14.50
2019-03-30T18:20:37.029Z,14.30
2019-03-30T18:23:05.611Z,14.10
2019-03-30T18:25:34.248Z,14.10
2019-03-30T18:28:02.968Z,14.10
2019-03-30T18:30:34.459Z,13.90
2019-03-30T18:33:03.092Z,13.90
2019-03-30T18:35:32.728Z,13.80
2019-03-30T18:38:03.135Z,13.70
2019-03-30T18:40:33.024Z,13.60
2019-03-30T18:43:03.145Z,13.50
2019-03-30T18:45:31.941Z,13.30
2019-03-30T18:48:19.936Z,13.20
2019-03-30T18:50:48.830Z,13.30
2019-03-30T18:53:18.153Z,13.10
2019-03-30T18:56:06.237Z,13.10
2019-03-30T18:58:41.477Z,12.90
2019-03-30T19:01:05.161Z,12.90
2019-03-30T19:03:33.757Z,12.90
2019-03-30T19:06:02.654Z,12.70
2019-03-30T19:08:34.452Z,12.60
2019-03-30T19:11:01.524Z,12.50
2019-03-30T19:13:30.176Z,12.50
2019-03-30T19:15:58.733Z,12.30
2019-03-30T19:18:27.321Z,12.20
2019-03-30T19:20:55.885Z,12.10
2019-03-30T19:23:24.541Z,12.10
2019-03-30T19:25:53.094Z,12.10
2019-03-30T19:28:21.672Z,12.00
2019-03-30T19:30:50.300Z,12.00
2019-03-30T19:33:18.883Z,11.80
2019-03-30T19:36:09.889Z,11.80
2019-03-30T19:38:37.018Z,11.90
2019-03-30T19:41:05.639Z,11.80
2019-03-30T19:43:34.296Z,11.70
2019-03-30T19:46:03.592Z,11.60
2019-03-30T19:48:32.177Z,11.60
2019-03-30T19:51:00.728Z,11.40
2019-03-30T19:53:29.311Z,11.30
2019-03-30T19:55:57.866Z,11.30
2019-03-30T19:58:26.457Z,11.30
2019-03-30T20:00:55.081Z,11.30
2019-03-30T20:03:23.742Z,11.20
2019-03-30T20:05:52.430Z,11.00
2019-03-30T20:08:21.056Z,11.00
2019-03-30T20:10:49.712Z,11.10
2019-03-30T20:13:18.367Z,11.10
2019-03-30T20:15:46.979Z,11.00
2019-03-30T20:18:15.516Z,10.90
2019-03-30T20:20:44.109Z,10.70
2019-03-30T20:23:32.029Z,10.60
2019-03-30T20:26:00.588Z,10.70
2019-03-30T20:28:29.145Z,10.50
2019-03-30T20:30:59.273Z,10.40
2019-03-30T20:33:27.819Z,10.30
2019-03-30T20:35:56.408Z,10.20
2019-03-30T20:38:44.400Z,10.20
2019-03-30T20:41:12.955Z,10.30
2019-03-30T20:43:41.515Z,10.40
2019-03-30T20:46:10.096Z,10.30
2019-03-30T20:48:38.653Z,10.30
2019-03-30T20:51:07.240Z,10.30
2019-03-30T20:53:35.864Z,10.30
2019-03-30T20:56:04.684Z,10.30
2019-03-30T20:58:52.576Z,10.20
2019-03-30T21:01:21.301Z,9.90
2019-03-30T21:03:49.852Z,9.70
2019-03-30T21:06:37.832Z,9.80
2019-03-30T21:09:07.416Z,9.80
2019-03-30T21:11:36.014Z,9.70
2019-03-30T21:14:04.645Z,9.70
2019-03-30T21:16:33.230Z,9.60
2019-03-30T21:19:01.850Z,9.50
2019-03-30T21:21:49.771Z,9.50
2019-03-30T21:24:18.324Z,9.50
2019-03-30T21:26:46.914Z,9.50
2019-03-30T21:29:15.694Z,9.50
2019-03-30T21:31:44.221Z,9.20
2019-03-30T21:34:12.776Z,9.20
2019-03-30T21:36:41.360Z,9.30
2019-03-30T21:39:29.352Z,9.30
2019-03-30T21:41:58.056Z,9.30
2019-03-30T21:44:26.612Z,9.30
2019-03-30T21:46:55.180Z,9.20
2019-03-30T21:49:23.738Z,9.10
2019-03-30T21:51:52.320Z,9.00
2019-03-30T21:54:21.012Z,9.00
2019-03-30T21:56:49.600Z,9.00
2019-03-30T21:59:18.226Z,8.90
2019-03-30T22:02:06.212Z,8.80
2019-03-30T22:04:34.761Z,8.60
2019-03-30T22:07:03.793Z,8.70
2019-03-30T22:09:51.884Z,8.70
2019-03-30T22:12:20.512Z,8.80
2019-03-30T22:14:49.232Z,8.80
2019-03-30T22:17:17.789Z,8.70
2019-03-30T22:19:57.004Z,8.60
2019-03-30T22:22:25.556Z,8.60
2019-03-30T22:25:13.552Z,8.60
2019-03-30T22:28:01.518Z,8.60
2019-03-30T22:30:30.100Z,8.60
2019-03-30T22:32:58.724Z,8.60
2019-03-30T22:35:27.379Z,8.60
2019-03-30T22:37:56.077Z,8.60
2019-03-30T22:40:44.173Z,8.50
2019-03-30T22:43:12.729Z,8.40
2019-03-30T22:45:41.306Z,8.40
2019-03-30T22:48:09.928Z,8.30
2019-03-30T22:50:38.513Z,8.20
2019-03-30T22:53:07.139Z,8.30
2019-03-30T22:55:35.733Z,8.10
2019-03-30T22:58:04.428Z,8.10
2019-03-30T23:00:43.723Z,8.10
2019-03-30T23:03:12.784Z,8.10
2019-03-30T23:05:41.371Z,8.10
2019-03-30T23:08:09.927Z,8.00
2019-03-30T23:10:38.517Z,8.00
2019-03-30T23:13:07.142Z,8.00
2019-03-30T23:15:35.804Z,7.90
2019-03-30T23:18:04.497Z,7.90
2019-03-30T23:20:33.088Z,7.90
2019-03-30T23:23:01.653Z,7.90
2019-03-30T23:25:30.205Z,7.90
2019-03-30T23:27:58.828Z,7.80
2019-03-30T23:30:27.454Z,7.80
2019-03-30T23:32:56.111Z,7.70
2019-03-30T23:35:44.182Z,7.70
2019-03-30T23:38:12.758Z,7.60
2019-03-30T23:40:41.380Z,7.60
2019-03-30T23:43:10.041Z,7.50
2019-03-30T23:45:38.661Z,7.50
2019-03-30T23:48:07.322Z,7.60
2019-03-30T23:50:35.952Z,7.60
2019-03-30T23:53:07.442Z,7.50
2019-03-30T23:55:35.053Z,7.50
2019-03-30T23:58:03.640Z,7.40
